Terminal Aerodrome Forecast
Issued by NWS

Home | Current Version | Previous Version | Graphics & Text | Print | Product List | Glossary On
Versions: 1 2 3 4 5 6 7 8 9 10 11 12 13
000
FTUS43 KMPX 050538
TAFRWF
TAF
KRWF 050538Z 0506/0606 20005KT 6SM BR SCT250
     FM051300 17008KT P6SM OVC090
     FM051600 18011KT P6SM OVC040
     FM051900 20010KT 3SM -SN BR OVC018
     FM060000 28006KT P6SM BKN022=

USA.gov is the U.S. government's official web portal to all federal, state and local government web resources and services.